createdAt,value
2019-04-04T00:01:33.667Z,7.43
2019-04-04T00:04:05.424Z,7.45
2019-04-04T00:06:37.523Z,7.48
2019-04-04T00:09:10.989Z,7.55
2019-04-04T00:11:42.482Z,7.63
2019-04-04T00:14:14.079Z,7.21
2019-04-04T00:16:46.756Z,7.55
2019-04-04T00:19:19.048Z,7.50
2019-04-04T00:21:50.587Z,7.36
2019-04-04T00:24:23.725Z,7.30
2019-04-04T00:26:55.794Z,7.26
2019-04-04T00:29:27.321Z,7.25
2019-04-04T00:31:58.799Z,7.22
2019-04-04T00:34:31.269Z,7.23
2019-04-04T00:37:04.383Z,7.05
2019-04-04T00:39:36.005Z,6.92
2019-04-04T00:42:07.478Z,6.84
2019-04-04T00:44:39.033Z,6.81
2019-04-04T00:47:10.615Z,6.79
2019-04-04T00:49:42.285Z,6.80
2019-04-04T00:52:13.790Z,6.73
2019-04-04T00:54:45.469Z,6.79
2019-04-04T00:57:17.276Z,6.80
2019-04-04T00:59:53.378Z,6.85
2019-04-04T01:02:23.644Z,6.85
2019-04-04T01:04:55.124Z,6.82
2019-04-04T01:07:26.601Z,6.80
2019-04-04T01:09:58.063Z,6.66
2019-04-04T01:12:30.223Z,6.58
2019-04-04T01:15:01.686Z,6.50
2019-04-04T01:17:35.064Z,6.60
2019-04-04T01:22:58.669Z,6.51
2019-04-04T01:25:54.473Z,6.42
2019-04-04T01:29:11.033Z,6.41
2019-04-04T01:31:46.629Z,6.24
2019-04-04T01:34:20.538Z,6.13
2019-04-04T01:36:51.674Z,6.07
2019-04-04T01:39:23.316Z,5.97
2019-04-04T01:41:54.898Z,5.90
2019-04-04T01:44:26.467Z,5.76
2019-04-04T01:46:58.064Z,5.61
2019-04-04T01:49:29.990Z,5.63
2019-04-04T01:52:04.324Z,5.57
2019-04-04T01:54:35.910Z,5.44
2019-04-04T01:57:08.219Z,5.50
2019-04-04T01:59:41.983Z,5.59
2019-04-04T02:02:14.160Z,5.64
2019-04-04T02:04:45.712Z,5.67
2019-04-04T02:07:17.419Z,5.68
2019-04-04T02:09:48.962Z,5.55
2019-04-04T02:12:20.510Z,5.47
2019-04-04T02:14:54.124Z,5.43
2019-04-04T02:17:27.479Z,5.50
2019-04-04T02:19:59.975Z,5.43
2019-04-04T02:22:31.635Z,5.46
2019-04-04T02:25:03.863Z,5.33
2019-04-04T02:27:37.631Z,5.27
2019-04-04T02:30:14.644Z,5.22
2019-04-04T02:32:43.321Z,5.19
2019-04-04T02:35:14.868Z,5.06
2019-04-04T02:37:46.505Z,4.96
2019-04-04T02:43:34.764Z,5.08
2019-04-04T02:46:45.827Z,5.06
2019-04-04T02:49:20.173Z,4.93
2019-04-04T02:51:51.693Z,4.98
2019-04-04T02:54:24.633Z,4.90
2019-04-04T02:56:57.597Z,4.96
2019-04-04T02:59:29.137Z,5.04
2019-04-04T03:02:04.820Z,5.16
2019-04-04T03:04:41.171Z,5.26
2019-04-04T03:07:36.399Z,5.34
2019-04-04T03:13:51.635Z,5.08
2019-04-04T03:16:23.188Z,5.12
2019-04-04T03:18:54.775Z,5.07
2019-04-04T03:25:18.666Z,5.12
2019-04-04T03:27:50.208Z,5.16
2019-04-04T03:30:21.741Z,5.02
2019-04-04T03:32:54.879Z,4.88
2019-04-04T03:35:28.986Z,4.90
2019-04-04T03:37:59.907Z,4.93
2019-04-04T03:40:46.799Z,4.86
2019-04-04T03:43:18.399Z,4.76
2019-04-04T03:45:50.162Z,4.71
2019-04-04T03:48:21.803Z,4.75
2019-04-04T03:51:04.642Z,4.61
2019-04-04T03:53:50.143Z,4.54
2019-04-04T03:56:21.907Z,4.45
2019-04-04T03:58:59.749Z,4.61
2019-04-04T04:01:32.960Z,4.55
2019-04-04T04:04:08.361Z,4.43
2019-04-04T04:06:48.715Z,4.34
2019-04-04T04:09:20.297Z,4.19
2019-04-04T04:12:14.025Z,4.15
2019-04-04T04:14:46.086Z,4.06
2019-04-04T04:17:19.701Z,4.07
2019-04-04T04:20:13.520Z,3.90
2019-04-04T04:23:05.400Z,3.90
2019-04-04T04:25:37.039Z,3.87
2019-04-04T04:28:10.147Z,3.94
2019-04-04T04:30:41.803Z,3.92
2019-04-04T04:33:13.338Z,4.08
2019-04-04T04:35:44.972Z,4.11
2019-04-04T04:38:18.138Z,4.08
2019-04-04T04:41:11.515Z,4.02
2019-04-04T04:43:43.122Z,4.06
2019-04-04T04:46:35.453Z,4.04
2019-04-04T04:49:07.005Z,4.00
2019-04-04T04:51:38.683Z,3.88
2019-04-04T04:57:22.768Z,3.80
2019-04-04T05:00:05.553Z,3.70
2019-04-04T05:02:40.639Z,3.72
2019-04-04T05:05:31.094Z,3.68
2019-04-04T05:08:00.390Z,3.67
2019-04-04T05:10:31.927Z,3.78
2019-04-04T05:13:03.506Z,3.79
2019-04-04T05:15:35.827Z,3.90
2019-04-04T05:18:14.131Z,3.94
2019-04-04T05:20:46.376Z,4.03
2019-04-04T05:23:18.116Z,4.13
2019-04-04T05:25:54.022Z,4.27
2019-04-04T05:28:24.856Z,4.24
2019-04-04T05:30:56.390Z,4.31
2019-04-04T05:37:24.113Z,4.49
2019-04-04T05:42:47.983Z,4.50
2019-04-04T05:48:31.250Z,4.39
2019-04-04T05:51:02.968Z,4.31
2019-04-04T05:53:35.445Z,4.32
2019-04-04T05:56:44.489Z,4.26
2019-04-04T05:59:23.668Z,4.19
2019-04-04T06:02:11.011Z,4.13
2019-04-04T06:08:23.484Z,3.81
2019-04-04T06:11:20.975Z,3.93
2019-04-04T06:14:02.494Z,3.92
2019-04-04T06:17:26.930Z,3.90
2019-04-04T06:19:14.816Z,3.90
2019-04-04T06:21:47.886Z,3.92
2019-04-04T06:24:20.849Z,3.85
2019-04-04T06:27:09.147Z,3.77
2019-04-04T06:29:41.040Z,3.69
2019-04-04T06:32:19.433Z,3.62
2019-04-04T06:34:52.510Z,3.65
2019-04-04T06:37:24.079Z,3.67
2019-04-04T06:40:19.223Z,3.74
2019-04-04T06:43:16.064Z,3.86
2019-04-04T06:45:47.657Z,3.97
2019-04-04T06:48:20.283Z,4.06
2019-04-04T06:50:51.831Z,4.19
2019-04-04T06:53:31.996Z,4.21
2019-04-04T06:56:05.249Z,4.30
2019-04-04T06:58:40.001Z,4.46
2019-04-04T07:01:22.107Z,4.59
2019-04-04T07:03:54.643Z,4.74
2019-04-04T07:06:26.228Z,4.90
2019-04-04T07:08:57.767Z,5.11
2019-04-04T07:11:29.689Z,5.47
2019-04-04T07:14:01.220Z,5.57
2019-04-04T07:16:34.175Z,5.77
2019-04-04T07:19:07.910Z,5.94
2019-04-04T07:21:39.826Z,6.03
2019-04-04T07:24:11.398Z,6.56
2019-04-04T07:26:45.538Z,7.09
2019-04-04T07:29:17.878Z,8.37
2019-04-04T07:31:50.389Z,9.50
2019-04-04T07:34:21.990Z,9.69
2019-04-04T07:36:53.588Z,9.17
2019-04-04T07:39:25.171Z,8.96
2019-04-04T07:41:56.706Z,8.74
2019-04-04T07:44:28.301Z,8.38
2019-04-04T07:46:59.874Z,8.09
2019-04-04T07:49:31.446Z,7.85
2019-04-04T07:52:03.487Z,7.51
2019-04-04T07:54:38.193Z,7.44
2019-04-04T07:57:08.278Z,7.76
2019-04-04T07:59:39.825Z,7.60
2019-04-04T08:02:11.373Z,7.84
2019-04-04T08:04:43.018Z,7.74
2019-04-04T08:07:14.651Z,7.58
2019-04-04T08:09:46.198Z,7.72
2019-04-04T08:12:19.222Z,7.91
2019-04-04T08:14:52.671Z,8.81
2019-04-04T08:17:25.725Z,9.89
2019-04-04T08:19:59.965Z,11.12
2019-04-04T08:22:30.607Z,12.63
2019-04-04T08:25:02.154Z,13.40
2019-04-04T08:27:33.733Z,13.57
2019-04-04T08:30:05.822Z,13.99
2019-04-04T08:32:37.383Z,16.03
2019-04-04T08:35:09.027Z,18.70
2019-04-04T08:37:40.594Z,17.50
2019-04-04T08:40:13.454Z,16.38
2019-04-04T08:42:45.007Z,15.09
2019-04-04T08:45:18.299Z,14.30
2019-04-04T08:47:50.342Z,14.28
2019-04-04T08:50:21.999Z,13.63
2019-04-04T08:52:53.545Z,13.41
2019-04-04T08:55:25.135Z,13.18
2019-04-04T08:57:56.773Z,12.89
2019-04-04T09:00:28.318Z,13.45
2019-04-04T09:02:59.880Z,13.34
2019-04-04T09:05:31.432Z,13.19
2019-04-04T09:08:03.343Z,13.17
2019-04-04T09:10:34.891Z,12.69
2019-04-04T09:13:06.442Z,12.53
2019-04-04T09:15:38.106Z,12.62
2019-04-04T09:18:09.687Z,12.32
2019-04-04T09:20:41.245Z,12.24
2019-04-04T09:23:12.797Z,11.87
2019-04-04T09:25:44.659Z,12.18
2019-04-04T09:28:16.954Z,12.15
2019-04-04T09:30:49.913Z,12.47
2019-04-04T09:33:21.453Z,12.60
2019-04-04T09:35:53.355Z,13.07
2019-04-04T09:38:24.988Z,14.48
2019-04-04T09:40:56.586Z,15.60
2019-04-04T09:43:28.147Z,16.12
2019-04-04T09:45:59.717Z,15.71
2019-04-04T09:48:31.295Z,16.27
2019-04-04T09:51:02.851Z,15.29
2019-04-04T09:53:35.402Z,14.88
2019-04-04T09:56:06.955Z,14.81
2019-04-04T09:58:38.489Z,14.70
2019-04-04T10:01:11.054Z,15.07
2019-04-04T10:03:42.750Z,15.15
2019-04-04T10:06:15.059Z,16.36
2019-04-04T10:08:46.617Z,17.27
2019-04-04T10:11:18.159Z,17.27
2019-04-04T10:13:49.725Z,17.51
2019-04-04T10:16:21.369Z,18.71
2019-04-04T10:18:53.932Z,18.84
2019-04-04T10:21:25.552Z,19.34
2019-04-04T10:23:57.455Z,19.20
2019-04-04T10:26:29.016Z,20.19
2019-04-04T10:29:00.545Z,20.29
2019-04-04T10:31:32.229Z,18.62
2019-04-04T10:34:03.791Z,17.29
2019-04-04T10:36:35.451Z,15.81
2019-04-04T10:39:12.209Z,15.62
2019-04-04T10:41:44.745Z,15.72
2019-04-04T10:44:16.290Z,15.87
2019-04-04T10:46:47.883Z,16.14
2019-04-04T10:49:19.428Z,15.97
2019-04-04T10:51:52.019Z,15.94
2019-04-04T10:54:23.550Z,15.48
2019-04-04T10:56:55.110Z,15.82
2019-04-04T10:59:26.732Z,15.65
2019-04-04T11:02:00.679Z,14.86
2019-04-04T11:04:31.544Z,14.85
2019-04-04T11:07:03.117Z,15.14
2019-04-04T11:09:41.930Z,15.27
2019-04-04T11:12:07.929Z,15.05
2019-04-04T11:14:39.463Z,15.19
2019-04-04T11:17:11.986Z,15.40
2019-04-04T11:19:44.471Z,14.90
2019-04-04T11:22:17.033Z,15.10
2019-04-04T11:24:48.576Z,15.35
2019-04-04T11:27:20.153Z,15.36
2019-04-04T11:29:51.699Z,15.60
2019-04-04T11:32:23.265Z,15.55
2019-04-04T11:34:54.815Z,15.81
2019-04-04T11:37:26.407Z,16.03
2019-04-04T11:39:57.942Z,15.95
2019-04-04T11:42:29.547Z,15.92
2019-04-04T11:45:01.086Z,15.74
2019-04-04T11:47:33.981Z,15.46
2019-04-04T11:50:07.532Z,15.11
2019-04-04T11:52:39.091Z,14.84
2019-04-04T11:55:10.668Z,14.26
2019-04-04T11:57:42.506Z,14.15
2019-04-04T12:00:18.519Z,14.01
2019-04-04T12:02:50.057Z,13.84
2019-04-04T12:05:21.649Z,13.62
2019-04-04T12:07:53.196Z,13.26
2019-04-04T12:10:25.102Z,12.86
2019-04-04T12:12:58.568Z,12.61
2019-04-04T12:15:30.389Z,12.35
2019-04-04T12:18:01.993Z,12.16
2019-04-04T12:20:33.566Z,12.15
2019-04-04T12:23:05.142Z,12.09
2019-04-04T12:25:36.817Z,12.05
2019-04-04T12:28:10.025Z,11.78
2019-04-04T12:30:41.913Z,12.10
2019-04-04T12:33:13.508Z,12.26
2019-04-04T12:35:45.158Z,12.42
2019-04-04T12:38:16.717Z,12.50
2019-04-04T12:40:48.588Z,12.66
2019-04-04T12:43:20.143Z,12.66
2019-04-04T12:45:51.688Z,12.47
2019-04-04T12:48:23.279Z,12.18
2019-04-04T12:50:54.810Z,12.36
2019-04-04T12:53:26.396Z,12.19
2019-04-04T12:55:57.932Z,12.23
2019-04-04T12:58:29.889Z,12.13
2019-04-04T13:01:01.543Z,12.03
2019-04-04T13:03:34.137Z,11.97
2019-04-04T13:06:05.793Z,11.84
2019-04-04T13:08:37.372Z,11.84
2019-04-04T13:11:09.466Z,11.85
2019-04-04T13:13:41.097Z,11.88
2019-04-04T13:16:12.650Z,11.84
2019-04-04T13:18:44.210Z,11.99
2019-04-04T13:21:15.822Z,11.77
2019-04-04T13:23:47.373Z,11.85
2019-04-04T13:26:18.987Z,11.88
2019-04-04T13:28:50.503Z,11.85
2019-04-04T13:31:22.068Z,11.74
2019-04-04T13:33:53.620Z,11.83
2019-04-04T13:36:25.171Z,11.94
2019-04-04T13:38:56.718Z,11.76
2019-04-04T13:41:28.315Z,11.71
2019-04-04T13:43:59.873Z,11.94
2019-04-04T13:46:31.520Z,11.99
2019-04-04T13:49:03.073Z,11.85
2019-04-04T13:51:34.667Z,11.91
2019-04-04T13:54:06.581Z,11.61
2019-04-04T13:56:38.548Z,11.66
2019-04-04T13:59:10.094Z,11.69
2019-04-04T14:01:43.035Z,11.51
2019-04-04T14:04:14.682Z,11.42
2019-04-04T14:06:46.358Z,11.34
2019-04-04T14:09:17.906Z,11.52
2019-04-04T14:11:49.474Z,11.36
2019-04-04T14:14:21.009Z,11.23
2019-04-04T14:16:52.566Z,11.23
2019-04-04T14:19:24.104Z,11.36
2019-04-04T14:21:55.709Z,11.25
2019-04-04T14:24:27.301Z,11.22
2019-04-04T14:26:58.883Z,11.12
2019-04-04T14:29:30.492Z,11.23
2019-04-04T14:32:02.070Z,11.02
2019-04-04T14:34:33.701Z,10.88
2019-04-04T14:37:05.390Z,11.00
2019-04-04T14:39:37.604Z,10.97
2019-04-04T14:42:09.192Z,10.94
2019-04-04T14:44:40.765Z,10.81
2019-04-04T14:47:13.947Z,10.92
2019-04-04T14:49:46.097Z,10.86
2019-04-04T14:52:19.946Z,10.94
2019-04-04T14:54:51.281Z,10.72
2019-04-04T14:57:22.888Z,10.82
2019-04-04T14:59:54.438Z,10.82
2019-04-04T15:02:26.043Z,10.79
2019-04-04T15:04:57.941Z,10.68
2019-04-04T15:07:29.502Z,10.76
2019-04-04T15:10:01.058Z,10.80
2019-04-04T15:12:32.819Z,10.98
2019-04-04T15:15:05.140Z,10.93
2019-04-04T15:17:36.719Z,10.94
2019-04-04T15:20:08.791Z,10.85
2019-04-04T15:22:40.458Z,10.87
2019-04-04T15:25:12.148Z,11.08
2019-04-04T15:27:43.776Z,11.05
2019-04-04T15:30:15.874Z,10.95
2019-04-04T15:32:47.703Z,10.84
2019-04-04T15:35:19.288Z,10.91
2019-04-04T15:37:50.865Z,10.91
2019-04-04T15:40:22.421Z,10.89
2019-04-04T15:42:54.994Z,10.71
2019-04-04T15:45:27.601Z,10.68
2019-04-04T15:47:59.135Z,10.59
2019-04-04T15:50:30.834Z,10.48
2019-04-04T15:53:04.207Z,10.42
2019-04-04T15:55:35.846Z,10.34
2019-04-04T15:58:07.481Z,10.36
2019-04-04T16:00:39.140Z,10.34
2019-04-04T16:03:10.702Z,10.35
2019-04-04T16:05:42.237Z,10.31
2019-04-04T16:08:13.796Z,10.11
2019-04-04T16:10:45.460Z,10.22
2019-04-04T16:13:16.999Z,10.07
2019-04-04T16:15:48.541Z,10.16
2019-04-04T16:18:20.110Z,10.14
2019-04-04T16:20:51.693Z,10.11
2019-04-04T16:23:23.274Z,10.13
2019-04-04T16:25:54.884Z,10.19
2019-04-04T16:28:26.433Z,10.28
2019-04-04T16:30:58.000Z,10.25
2019-04-04T16:33:30.476Z,10.30
2019-04-04T16:36:02.019Z,10.50
2019-04-04T16:38:34.139Z,10.56
2019-04-04T16:41:05.690Z,10.61
2019-04-04T16:43:37.308Z,10.68
2019-04-04T16:46:08.846Z,10.54
2019-04-04T16:48:40.630Z,10.49
2019-04-04T16:51:12.195Z,10.44
2019-04-04T16:53:43.790Z,10.30
2019-04-04T16:56:15.362Z,10.06
2019-04-04T16:58:46.947Z,10.09
2019-04-04T17:01:18.734Z,10.01
2019-04-04T17:04:01.062Z,10.03
2019-04-04T17:06:23.719Z,10.00
2019-04-04T17:08:55.277Z,9.94
2019-04-04T17:11:26.888Z,9.80
2019-04-04T17:13:58.428Z,9.78
2019-04-04T17:16:29.975Z,9.87
2019-04-04T17:19:02.281Z,9.86
2019-04-04T17:21:33.875Z,9.87
2019-04-04T17:24:05.507Z,9.90
2019-04-04T17:26:38.143Z,9.94
2019-04-04T17:29:09.820Z,9.90
2019-04-04T17:31:41.396Z,9.85
2019-04-04T17:34:12.999Z,9.95
2019-04-04T17:36:44.923Z,9.97
2019-04-04T17:39:16.457Z,9.88
2019-04-04T17:41:49.780Z,9.95
2019-04-04T17:44:21.707Z,9.94
2019-04-04T17:46:53.882Z,10.03
2019-04-04T17:49:25.601Z,9.88
2019-04-04T17:51:57.160Z,9.85
2019-04-04T17:54:30.504Z,9.91
2019-04-04T17:57:02.099Z,9.85
2019-04-04T17:59:33.828Z,9.90
2019-04-04T18:02:05.485Z,9.93
2019-04-04T18:04:47.889Z,9.84
2019-04-04T18:07:10.300Z,9.93
2019-04-04T18:09:41.977Z,9.93
2019-04-04T18:12:13.564Z,9.92
2019-04-04T18:14:45.107Z,9.80
2019-04-04T18:17:16.715Z,9.86
2019-04-04T18:19:48.308Z,9.89
2019-04-04T18:22:20.893Z,9.85
2019-04-04T18:24:52.522Z,9.85
2019-04-04T18:27:24.082Z,9.82
2019-04-04T18:29:55.637Z,9.82
2019-04-04T18:32:27.301Z,9.80
2019-04-04T18:34:59.037Z,9.84
2019-04-04T18:37:31.019Z,9.81
2019-04-04T18:40:02.733Z,9.89
2019-04-04T18:42:34.302Z,9.84
2019-04-04T18:45:06.957Z,9.83
2019-04-04T18:47:39.578Z,9.85
2019-04-04T18:50:11.525Z,9.81
2019-04-04T18:52:43.070Z,9.80
2019-04-04T18:55:19.967Z,9.80
2019-04-04T18:57:47.925Z,9.76
2019-04-04T19:00:19.624Z,9.75
2019-04-04T19:02:51.200Z,9.71
2019-04-04T19:05:22.982Z,9.62
2019-04-04T19:07:54.638Z,9.67
2019-04-04T19:10:26.245Z,9.56
2019-04-04T19:13:05.199Z,9.60
2019-04-04T19:15:32.713Z,9.56
2019-04-04T19:18:04.351Z,9.60
2019-04-04T19:20:35.948Z,9.60
2019-04-04T19:23:07.494Z,9.55
2019-04-04T19:25:39.108Z,9.59
2019-04-04T19:28:10.886Z,9.55
2019-04-04T19:30:43.121Z,9.56
2019-04-04T19:33:14.794Z,9.59
2019-04-04T19:35:46.526Z,9.49
2019-04-04T19:38:18.127Z,9.46
2019-04-04T19:40:49.826Z,9.46
2019-04-04T19:43:21.430Z,9.44
2019-04-04T19:45:53.004Z,9.44
2019-04-04T19:48:24.622Z,9.60
2019-04-04T19:50:57.599Z,9.69
2019-04-04T19:53:29.226Z,9.71
2019-04-04T19:56:01.198Z,9.67
2019-04-04T19:58:32.827Z,9.70
2019-04-04T20:01:04.878Z,9.76
2019-04-04T20:03:36.899Z,9.69
2019-04-04T20:06:08.687Z,9.72
2019-04-04T20:08:40.354Z,9.71
2019-04-04T20:11:11.922Z,9.78
2019-04-04T20:13:43.588Z,9.74
2019-04-04T20:16:15.188Z,9.78
2019-04-04T20:18:46.763Z,9.79
2019-04-04T20:21:18.351Z,9.79
2019-04-04T20:23:50.485Z,9.79
2019-04-04T20:26:30.799Z,9.75
2019-04-04T20:29:07.017Z,9.59
2019-04-04T20:31:47.081Z,9.61
2019-04-04T20:34:19.155Z,9.55
2019-04-04T20:36:51.222Z,9.60
2019-04-04T20:39:23.003Z,9.59
2019-04-04T20:41:58.055Z,9.55
2019-04-04T20:44:29.990Z,9.59
2019-04-04T20:47:04.320Z,9.57
2019-04-04T20:49:36.014Z,9.58
2019-04-04T20:52:08.457Z,9.53
2019-04-04T20:54:40.165Z,9.45
2019-04-04T20:57:15.621Z,9.42
2019-04-04T20:59:47.124Z,9.34
2019-04-04T21:02:23.955Z,9.31
2019-04-04T21:04:55.896Z,9.28
2019-04-04T21:07:30.773Z,9.26
2019-04-04T21:10:02.612Z,9.27
2019-04-04T21:12:34.988Z,9.26
2019-04-04T21:15:13.425Z,9.31
2019-04-04T21:17:49.544Z,9.27
2019-04-04T21:20:21.192Z,9.30
2019-04-04T21:22:52.958Z,9.34
2019-04-04T21:25:26.383Z,9.40
2019-04-04T21:27:58.286Z,9.37
2019-04-04T21:30:30.065Z,9.51
2019-04-04T21:33:01.623Z,9.53
2019-04-04T21:35:33.204Z,9.48
2019-04-04T21:38:04.783Z,9.44
2019-04-04T21:40:36.407Z,9.39
2019-04-04T21:43:08.018Z,9.41
2019-04-04T21:45:39.624Z,9.26
2019-04-04T21:48:11.327Z,9.30
2019-04-04T21:50:43.125Z,9.34
2019-04-04T21:53:14.669Z,9.43
2019-04-04T21:55:46.261Z,9.41
2019-04-04T21:58:18.199Z,9.42
2019-04-04T22:00:51.023Z,9.39
2019-04-04T22:03:23.556Z,9.27
2019-04-04T22:05:55.381Z,9.15
2019-04-04T22:08:27.307Z,9.19
2019-04-04T22:10:58.911Z,9.20
2019-04-04T22:13:30.589Z,9.21
2019-04-04T22:16:02.362Z,9.07
2019-04-04T22:18:34.262Z,9.05
2019-04-04T22:21:05.815Z,9.09
2019-04-04T22:23:37.387Z,8.94
2019-04-04T22:26:08.968Z,8.98
2019-04-04T22:28:40.521Z,9.03
2019-04-04T22:31:12.153Z,9.08
2019-04-04T22:33:43.739Z,9.07
2019-04-04T22:36:15.280Z,9.09
2019-04-04T22:38:46.876Z,9.07
2019-04-04T22:41:18.550Z,9.03
2019-04-04T22:44:02.992Z,8.91
2019-04-04T22:46:26.184Z,8.80
2019-04-04T22:48:57.737Z,8.72
2019-04-04T22:51:29.334Z,8.63
2019-04-04T22:54:01.211Z,8.54
2019-04-04T22:56:34.242Z,8.44
2019-04-04T22:59:06.248Z,8.45
2019-04-04T23:01:37.838Z,8.39
2019-04-04T23:04:09.408Z,8.38
2019-04-04T23:06:42.023Z,8.41
2019-04-04T23:09:13.597Z,8.43
2019-04-04T23:11:45.188Z,8.47
2019-04-04T23:14:16.771Z,8.47
2019-04-04T23:17:02.865Z,8.52
2019-04-04T23:19:34.416Z,8.56
2019-04-04T23:22:06.095Z,8.56
2019-04-04T23:24:37.650Z,8.47
2019-04-04T23:27:09.216Z,8.47
2019-04-04T23:29:42.660Z,8.49
2019-04-04T23:32:14.367Z,8.62
2019-04-04T23:34:45.928Z,8.51
2019-04-04T23:37:18.488Z,8.53
2019-04-04T23:39:50.534Z,8.62
2019-04-04T23:42:22.088Z,8.66
2019-04-04T23:45:00.714Z,8.65
2019-04-04T23:47:26.914Z,8.54
2019-04-04T23:49:58.463Z,8.53
2019-04-04T23:52:30.104Z,8.50
2019-04-04T23:55:01.651Z,8.45
2019-04-04T23:57:33.213Z,8.53
